sensor_id;sensor_type;location;lat;lon;timestamp;P1;durP1;ratioP1;P2;durP2;ratioP2
14342;SDS011;7255;53.596;9.960;2023-04-15T00:00:54;5.68;;;5.18;;
14342;SDS011;7255;53.596;9.960;2023-04-15T00:03:21;6.15;;;5.65;;
14342;SDS011;7255;53.596;9.960;2023-04-15T00:05:48;5.97;;;5.47;;
14342;SDS011;7255;53.596;9.960;2023-04-15T00:08:14;6.12;;;5.53;;
14342;SDS011;7255;53.596;9.960;2023-04-15T00:10:42;5.60;;;5.03;;
14342;SDS011;7255;53.596;9.960;2023-04-15T00:13:10;6.03;;;5.43;;
14342;SDS011;7255;53.596;9.960;2023-04-15T00:15:36;6.03;;;5.43;;
14342;SDS011;7255;53.596;9.960;2023-04-15T00:18:03;6.53;;;5.32;;
14342;SDS011;7255;53.596;9.960;2023-04-15T00:20:29;5.93;;;5.37;;
14342;SDS011;7255;53.596;9.960;2023-04-15T00:22:57;6.07;;;5.57;;
14342;SDS011;7255;53.596;9.960;2023-04-15T00:25:24;6.40;;;5.80;;
14342;SDS011;7255;53.596;9.960;2023-04-15T00:27:52;7.22;;;5.82;;
14342;SDS011;7255;53.596;9.960;2023-04-15T00:30:18;5.93;;;5.32;;
14342;SDS011;7255;53.596;9.960;2023-04-15T00:32:45;6.40;;;5.80;;
14342;SDS011;7255;53.596;9.960;2023-04-15T00:35:11;6.60;;;5.90;;
14342;SDS011;7255;53.596;9.960;2023-04-15T00:37:37;6.18;;;5.68;;
14342;SDS011;7255;53.596;9.960;2023-04-15T00:40:04;6.40;;;5.80;;
14342;SDS011;7255;53.596;9.960;2023-04-15T00:42:35;6.68;;;5.72;;
14342;SDS011;7255;53.596;9.960;2023-04-15T00:45:04;6.70;;;6.10;;
14342;SDS011;7255;53.596;9.960;2023-04-15T00:47:31;6.53;;;5.93;;
14342;SDS011;7255;53.596;9.960;2023-04-15T00:49:58;7.03;;;6.35;;
14342;SDS011;7255;53.596;9.960;2023-04-15T00:52:25;7.37;;;6.72;;
14342;SDS011;7255;53.596;9.960;2023-04-15T00:54:51;6.70;;;6.10;;
14342;SDS011;7255;53.596;9.960;2023-04-15T00:57:17;7.30;;;6.60;;
14342;SDS011;7255;53.596;9.960;2023-04-15T00:59:44;7.22;;;6.30;;
14342;SDS011;7255;53.596;9.960;2023-04-15T01:02:11;7.72;;;7.03;;
14342;SDS011;7255;53.596;9.960;2023-04-15T01:04:38;7.35;;;6.47;;
14342;SDS011;7255;53.596;9.960;2023-04-15T01:07:04;8.05;;;7.25;;
14342;SDS011;7255;53.596;9.960;2023-04-15T01:09:31;7.90;;;7.10;;
14342;SDS011;7255;53.596;9.960;2023-04-15T01:11:57;7.75;;;7.00;;
14342;SDS011;7255;53.596;9.960;2023-04-15T01:14:24;8.13;;;7.32;;
14342;SDS011;7255;53.596;9.960;2023-04-15T01:16:51;8.10;;;7.40;;
14342;SDS011;7255;53.596;9.960;2023-04-15T01:19:19;8.50;;;7.60;;
14342;SDS011;7255;53.596;9.960;2023-04-15T01:21:46;9.60;;;8.63;;
14342;SDS011;7255;53.596;9.960;2023-04-15T01:24:12;8.98;;;8.07;;
14342;SDS011;7255;53.596;9.960;2023-04-15T01:26:44;9.35;;;8.45;;
14342;SDS011;7255;53.596;9.960;2023-04-15T01:29:11;9.23;;;8.32;;
14342;SDS011;7255;53.596;9.960;2023-04-15T01:31:38;9.35;;;8.35;;
14342;SDS011;7255;53.596;9.960;2023-04-15T01:34:04;9.77;;;8.75;;
14342;SDS011;7255;53.596;9.960;2023-04-15T01:36:30;9.77;;;8.85;;
14342;SDS011;7255;53.596;9.960;2023-04-15T01:38:57;10.38;;;9.27;;
14342;SDS011;7255;53.596;9.960;2023-04-15T01:41:24;11.40;;;9.77;;
14342;SDS011;7255;53.596;9.960;2023-04-15T01:43:52;10.18;;;8.80;;
14342;SDS011;7255;53.596;9.960;2023-04-15T01:46:19;9.98;;;9.02;;
14342;SDS011;7255;53.596;9.960;2023-04-15T01:48:46;10.35;;;9.35;;
14342;SDS011;7255;53.596;9.960;2023-04-15T01:51:12;10.70;;;9.60;;
14342;SDS011;7255;53.596;9.960;2023-04-15T01:53:38;9.77;;;8.77;;
14342;SDS011;7255;53.596;9.960;2023-04-15T01:56:05;10.23;;;9.23;;
14342;SDS011;7255;53.596;9.960;2023-04-15T01:58:32;10.00;;;9.02;;
14342;SDS011;7255;53.596;9.960;2023-04-15T02:01:00;9.27;;;8.38;;
14342;SDS011;7255;53.596;9.960;2023-04-15T02:03:27;9.98;;;8.98;;
14342;SDS011;7255;53.596;9.960;2023-04-15T02:05:54;10.18;;;9.18;;
14342;SDS011;7255;53.596;9.960;2023-04-15T02:08:20;11.93;;;9.68;;
14342;SDS011;7255;53.596;9.960;2023-04-15T02:10:47;11.65;;;9.90;;
14342;SDS011;7255;53.596;9.960;2023-04-15T02:13:14;10.70;;;9.27;;
14342;SDS011;7255;53.596;9.960;2023-04-15T02:15:41;10.43;;;9.32;;
14342;SDS011;7255;53.596;9.960;2023-04-15T02:18:13;10.55;;;9.52;;
14342;SDS011;7255;53.596;9.960;2023-04-15T02:20:40;11.60;;;9.75;;
14342;SDS011;7255;53.596;9.960;2023-04-15T02:23:07;11.65;;;10.45;;
14342;SDS011;7255;53.596;9.960;2023-04-15T02:25:33;12.13;;;10.83;;
14342;SDS011;7255;53.596;9.960;2023-04-15T02:28:00;11.20;;;10.00;;
14342;SDS011;7255;53.596;9.960;2023-04-15T02:30:26;11.30;;;10.10;;
14342;SDS011;7255;53.596;9.960;2023-04-15T02:32:52;11.17;;;10.07;;
14342;SDS011;7255;53.596;9.960;2023-04-15T02:35:21;10.85;;;9.75;;
14342;SDS011;7255;53.596;9.960;2023-04-15T02:37:49;11.98;;;10.55;;
14342;SDS011;7255;53.596;9.960;2023-04-15T02:40:16;12.80;;;10.63;;
14342;SDS011;7255;53.596;9.960;2023-04-15T02:42:43;12.20;;;10.90;;
14342;SDS011;7255;53.596;9.960;2023-04-15T02:45:10;11.85;;;10.52;;
14342;SDS011;7255;53.596;9.960;2023-04-15T02:47:37;12.10;;;10.77;;
14342;SDS011;7255;53.596;9.960;2023-04-15T02:50:06;12.43;;;10.80;;
14342;SDS011;7255;53.596;9.960;2023-04-15T02:52:35;13.07;;;11.23;;
14342;SDS011;7255;53.596;9.960;2023-04-15T02:55:01;12.52;;;11.23;;
14342;SDS011;7255;53.596;9.960;2023-04-15T02:57:29;13.50;;;12.10;;
14342;SDS011;7255;53.596;9.960;2023-04-15T02:59:55;14.18;;;11.32;;
14342;SDS011;7255;53.596;9.960;2023-04-15T03:02:22;16.45;;;11.77;;
14342;SDS011;7255;53.596;9.960;2023-04-15T03:04:49;16.40;;;9.90;;
14342;SDS011;7255;53.596;9.960;2023-04-15T03:07:16;15.10;;;11.17;;
14342;SDS011;7255;53.596;9.960;2023-04-15T03:09:44;14.13;;;10.90;;
14342;SDS011;7255;53.596;9.960;2023-04-15T03:12:11;12.05;;;9.95;;
14342;SDS011;7255;53.596;9.960;2023-04-15T03:14:38;13.00;;;9.98;;
14342;SDS011;7255;53.596;9.960;2023-04-15T03:17:04;14.13;;;9.77;;
14342;SDS011;7255;53.596;9.960;2023-04-15T03:19:30;14.43;;;9.73;;
14342;SDS011;7255;53.596;9.960;2023-04-15T03:21:57;14.00;;;10.35;;
14342;SDS011;7255;53.596;9.960;2023-04-15T03:24:23;11.73;;;9.43;;
14342;SDS011;7255;53.596;9.960;2023-04-15T03:26:51;11.27;;;9.03;;
14342;SDS011;7255;53.596;9.960;2023-04-15T03:29:17;12.90;;;9.27;;
14342;SDS011;7255;53.596;9.960;2023-04-15T03:31:43;11.18;;;9.13;;
14342;SDS011;7255;53.596;9.960;2023-04-15T03:34:10;11.10;;;8.60;;
14342;SDS011;7255;53.596;9.960;2023-04-15T03:36:36;11.32;;;7.72;;
14342;SDS011;7255;53.596;9.960;2023-04-15T03:39:03;9.98;;;6.90;;
14342;SDS011;7255;53.596;9.960;2023-04-15T03:41:29;8.73;;;6.55;;
14342;SDS011;7255;53.596;9.960;2023-04-15T03:43:58;9.85;;;6.72;;
14342;SDS011;7255;53.596;9.960;2023-04-15T03:46:24;8.52;;;6.55;;
14342;SDS011;7255;53.596;9.960;2023-04-15T03:48:50;8.90;;;6.47;;
14342;SDS011;7255;53.596;9.960;2023-04-15T03:51:17;8.75;;;6.30;;
14342;SDS011;7255;53.596;9.960;2023-04-15T03:53:43;9.52;;;7.30;;
14342;SDS011;7255;53.596;9.960;2023-04-15T03:56:10;8.55;;;7.03;;
14342;SDS011;7255;53.596;9.960;2023-04-15T03:58:36;9.07;;;6.78;;
14342;SDS011;7255;53.596;9.960;2023-04-15T04:01:03;10.27;;;6.55;;
14342;SDS011;7255;53.596;9.960;2023-04-15T04:03:30;12.27;;;8.30;;
14342;SDS011;7255;53.596;9.960;2023-04-15T04:05:57;12.35;;;8.32;;
14342;SDS011;7255;53.596;9.960;2023-04-15T04:08:23;12.35;;;7.80;;
14342;SDS011;7255;53.596;9.960;2023-04-15T04:10:51;11.88;;;8.15;;
14342;SDS011;7255;53.596;9.960;2023-04-15T04:13:18;11.90;;;8.45;;
14342;SDS011;7255;53.596;9.960;2023-04-15T04:15:44;13.25;;;8.55;;
14342;SDS011;7255;53.596;9.960;2023-04-15T04:18:12;12.20;;;8.55;;
14342;SDS011;7255;53.596;9.960;2023-04-15T04:20:38;13.63;;;8.90;;
14342;SDS011;7255;53.596;9.960;2023-04-15T04:23:05;12.27;;;8.40;;
14342;SDS011;7255;53.596;9.960;2023-04-15T04:25:31;14.05;;;8.80;;
14342;SDS011;7255;53.596;9.960;2023-04-15T04:27:57;12.77;;;8.43;;
14342;SDS011;7255;53.596;9.960;2023-04-15T04:30:24;14.13;;;8.95;;
14342;SDS011;7255;53.596;9.960;2023-04-15T04:32:50;12.95;;;9.18;;
14342;SDS011;7255;53.596;9.960;2023-04-15T04:35:18;13.68;;;8.77;;
14342;SDS011;7255;53.596;9.960;2023-04-15T04:37:44;13.47;;;9.53;;
14342;SDS011;7255;53.596;9.960;2023-04-15T04:40:11;15.98;;;10.02;;
14342;SDS011;7255;53.596;9.960;2023-04-15T04:42:38;14.03;;;10.10;;
14342;SDS011;7255;53.596;9.960;2023-04-15T04:45:04;12.73;;;9.15;;
14342;SDS011;7255;53.596;9.960;2023-04-15T04:47:32;16.30;;;10.73;;
14342;SDS011;7255;53.596;9.960;2023-04-15T04:49:58;16.50;;;10.75;;
14342;SDS011;7255;53.596;9.960;2023-04-15T04:52:26;15.98;;;10.88;;
14342;SDS011;7255;53.596;9.960;2023-04-15T04:54:52;17.15;;;10.60;;
14342;SDS011;7255;53.596;9.960;2023-04-15T04:57:19;16.95;;;11.50;;
14342;SDS011;7255;53.596;9.960;2023-04-15T04:59:45;17.52;;;11.10;;
14342;SDS011;7255;53.596;9.960;2023-04-15T05:02:11;17.67;;;11.07;;
14342;SDS011;7255;53.596;9.960;2023-04-15T05:04:37;16.70;;;11.32;;
14342;SDS011;7255;53.596;9.960;2023-04-15T05:07:05;17.37;;;11.52;;
14342;SDS011;7255;53.596;9.960;2023-04-15T05:09:33;17.25;;;11.70;;
14342;SDS011;7255;53.596;9.960;2023-04-15T05:12:00;17.63;;;12.40;;
14342;SDS011;7255;53.596;9.960;2023-04-15T05:14:27;20.95;;;12.65;;
14342;SDS011;7255;53.596;9.960;2023-04-15T05:16:53;21.53;;;13.77;;
14342;SDS011;7255;53.596;9.960;2023-04-15T05:19:20;19.95;;;13.20;;
14342;SDS011;7255;53.596;9.960;2023-04-15T05:21:46;21.08;;;12.88;;
14342;SDS011;7255;53.596;9.960;2023-04-15T05:24:12;23.15;;;13.40;;
14342;SDS011;7255;53.596;9.960;2023-04-15T05:26:40;22.15;;;13.38;;
14342;SDS011;7255;53.596;9.960;2023-04-15T05:29:06;23.45;;;13.32;;
14342;SDS011;7255;53.596;9.960;2023-04-15T05:31:33;21.55;;;13.50;;
14342;SDS011;7255;53.596;9.960;2023-04-15T05:33:59;24.98;;;14.32;;
14342;SDS011;7255;53.596;9.960;2023-04-15T05:36:25;23.38;;;14.57;;
14342;SDS011;7255;53.596;9.960;2023-04-15T05:38:52;23.30;;;14.23;;
14342;SDS011;7255;53.596;9.960;2023-04-15T05:41:18;21.08;;;13.60;;
14342;SDS011;7255;53.596;9.960;2023-04-15T05:43:46;19.75;;;13.77;;
14342;SDS011;7255;53.596;9.960;2023-04-15T05:46:13;21.17;;;13.82;;
14342;SDS011;7255;53.596;9.960;2023-04-15T05:48:39;20.27;;;14.13;;
14342;SDS011;7255;53.596;9.960;2023-04-15T05:51:06;19.87;;;13.73;;
14342;SDS011;7255;53.596;9.960;2023-04-15T05:53:32;21.00;;;13.93;;
14342;SDS011;7255;53.596;9.960;2023-04-15T05:55:58;19.58;;;13.52;;
14342;SDS011;7255;53.596;9.960;2023-04-15T05:58:25;22.48;;;14.43;;
14342;SDS011;7255;53.596;9.960;2023-04-15T06:00:53;21.45;;;14.32;;
14342;SDS011;7255;53.596;9.960;2023-04-15T06:03:19;19.75;;;13.32;;
14342;SDS011;7255;53.596;9.960;2023-04-15T06:05:46;20.55;;;13.93;;
14342;SDS011;7255;53.596;9.960;2023-04-15T06:08:13;20.12;;;13.70;;
14342;SDS011;7255;53.596;9.960;2023-04-15T06:10:39;21.02;;;15.15;;
14342;SDS011;7255;53.596;9.960;2023-04-15T06:13:06;21.70;;;14.90;;
14342;SDS011;7255;53.596;9.960;2023-04-15T06:15:32;22.35;;;14.68;;
14342;SDS011;7255;53.596;9.960;2023-04-15T06:18:00;21.92;;;14.87;;
14342;SDS011;7255;53.596;9.960;2023-04-15T06:20:27;22.27;;;15.53;;
14342;SDS011;7255;53.596;9.960;2023-04-15T06:22:53;23.90;;;15.68;;
14342;SDS011;7255;53.596;9.960;2023-04-15T06:25:19;23.80;;;15.02;;
14342;SDS011;7255;53.596;9.960;2023-04-15T06:27:46;26.02;;;17.37;;
14342;SDS011;7255;53.596;9.960;2023-04-15T06:30:12;25.13;;;16.33;;
14342;SDS011;7255;53.596;9.960;2023-04-15T06:32:38;25.23;;;17.55;;
14342;SDS011;7255;53.596;9.960;2023-04-15T06:35:06;23.73;;;16.17;;
14342;SDS011;7255;53.596;9.960;2023-04-15T06:37:33;26.33;;;17.07;;
14342;SDS011;7255;53.596;9.960;2023-04-15T06:40:00;25.37;;;16.65;;
14342;SDS011;7255;53.596;9.960;2023-04-15T06:42:26;26.43;;;17.00;;
14342;SDS011;7255;53.596;9.960;2023-04-15T06:44:53;25.65;;;17.40;;
14342;SDS011;7255;53.596;9.960;2023-04-15T06:47:19;24.77;;;16.92;;
14342;SDS011;7255;53.596;9.960;2023-04-15T06:49:45;27.50;;;18.35;;
14342;SDS011;7255;53.596;9.960;2023-04-15T06:52:13;28.87;;;19.90;;
14342;SDS011;7255;53.596;9.960;2023-04-15T06:54:40;28.87;;;19.37;;
14342;SDS011;7255;53.596;9.960;2023-04-15T06:57:06;27.80;;;18.08;;
14342;SDS011;7255;53.596;9.960;2023-04-15T06:59:33;28.83;;;19.30;;
14342;SDS011;7255;53.596;9.960;2023-04-15T07:02:00;32.70;;;20.60;;
14342;SDS011;7255;53.596;9.960;2023-04-15T07:04:26;31.37;;;20.50;;
14342;SDS011;7255;53.596;9.960;2023-04-15T07:06:52;31.02;;;21.00;;
14342;SDS011;7255;53.596;9.960;2023-04-15T07:09:20;31.70;;;20.62;;
14342;SDS011;7255;53.596;9.960;2023-04-15T07:11:47;32.95;;;21.48;;
14342;SDS011;7255;53.596;9.960;2023-04-15T07:14:13;30.52;;;21.02;;
14342;SDS011;7255;53.596;9.960;2023-04-15T07:16:40;32.73;;;21.30;;
14342;SDS011;7255;53.596;9.960;2023-04-15T07:19:06;29.50;;;19.73;;
14342;SDS011;7255;53.596;9.960;2023-04-15T07:21:32;30.92;;;20.55;;
14342;SDS011;7255;53.596;9.960;2023-04-15T07:23:58;29.90;;;19.48;;
14342;SDS011;7255;53.596;9.960;2023-04-15T07:26:26;29.35;;;19.27;;
14342;SDS011;7255;53.596;9.960;2023-04-15T07:28:53;29.75;;;20.05;;
14342;SDS011;7255;53.596;9.960;2023-04-15T07:31:19;32.08;;;21.08;;
14342;SDS011;7255;53.596;9.960;2023-04-15T07:33:46;29.63;;;19.65;;
14342;SDS011;7255;53.596;9.960;2023-04-15T07:36:12;30.80;;;19.65;;
14342;SDS011;7255;53.596;9.960;2023-04-15T07:38:39;32.47;;;20.77;;
14342;SDS011;7255;53.596;9.960;2023-04-15T07:41:05;26.37;;;19.12;;
14342;SDS011;7255;53.596;9.960;2023-04-15T07:43:33;32.43;;;20.63;;
14342;SDS011;7255;53.596;9.960;2023-04-15T07:45:59;30.83;;;20.62;;
14342;SDS011;7255;53.596;9.960;2023-04-15T07:48:26;31.58;;;20.10;;
14342;SDS011;7255;53.596;9.960;2023-04-15T07:50:52;29.33;;;19.27;;
14342;SDS011;7255;53.596;9.960;2023-04-15T07:53:18;29.55;;;19.87;;
14342;SDS011;7255;53.596;9.960;2023-04-15T07:55:45;29.17;;;19.58;;
14342;SDS011;7255;53.596;9.960;2023-04-15T07:58:11;27.50;;;19.80;;
14342;SDS011;7255;53.596;9.960;2023-04-15T08:00:39;29.40;;;20.02;;
14342;SDS011;7255;53.596;9.960;2023-04-15T08:03:05;30.05;;;20.10;;
14342;SDS011;7255;53.596;9.960;2023-04-15T08:05:32;30.40;;;20.03;;
14342;SDS011;7255;53.596;9.960;2023-04-15T08:07:58;29.60;;;20.00;;
14342;SDS011;7255;53.596;9.960;2023-04-15T08:10:25;26.87;;;19.75;;
14342;SDS011;7255;53.596;9.960;2023-04-15T08:12:51;28.08;;;20.45;;
14342;SDS011;7255;53.596;9.960;2023-04-15T08:15:18;29.85;;;20.37;;
14342;SDS011;7255;53.596;9.960;2023-04-15T08:17:46;33.33;;;20.93;;
14342;SDS011;7255;53.596;9.960;2023-04-15T08:20:13;28.80;;;20.33;;
14342;SDS011;7255;53.596;9.960;2023-04-15T08:22:39;31.35;;;21.40;;
14342;SDS011;7255;53.596;9.960;2023-04-15T08:25:06;30.42;;;20.37;;
14342;SDS011;7255;53.596;9.960;2023-04-15T08:27:34;32.72;;;22.70;;
14342;SDS011;7255;53.596;9.960;2023-04-15T08:30:00;29.90;;;21.25;;
14342;SDS011;7255;53.596;9.960;2023-04-15T08:32:27;28.12;;;20.48;;
14342;SDS011;7255;53.596;9.960;2023-04-15T08:34:55;26.77;;;19.30;;
14342;SDS011;7255;53.596;9.960;2023-04-15T08:37:21;29.03;;;20.13;;
14342;SDS011;7255;53.596;9.960;2023-04-15T08:39:48;30.27;;;19.70;;
14342;SDS011;7255;53.596;9.960;2023-04-15T08:42:15;27.52;;;19.77;;
14342;SDS011;7255;53.596;9.960;2023-04-15T08:44:42;28.58;;;20.42;;
14342;SDS011;7255;53.596;9.960;2023-04-15T08:47:09;28.02;;;18.87;;
14342;SDS011;7255;53.596;9.960;2023-04-15T08:49:39;28.27;;;20.25;;
14342;SDS011;7255;53.596;9.960;2023-04-15T08:52:07;26.27;;;18.50;;
14342;SDS011;7255;53.596;9.960;2023-04-15T08:54:34;29.27;;;19.60;;
14342;SDS011;7255;53.596;9.960;2023-04-15T08:57:01;27.23;;;19.73;;
14342;SDS011;7255;53.596;9.960;2023-04-15T08:59:28;27.62;;;19.08;;
14342;SDS011;7255;53.596;9.960;2023-04-15T09:01:55;27.73;;;19.50;;
14342;SDS011;7255;53.596;9.960;2023-04-15T09:04:22;29.98;;;20.23;;
14342;SDS011;7255;53.596;9.960;2023-04-15T09:06:48;30.55;;;20.35;;
14342;SDS011;7255;53.596;9.960;2023-04-15T09:09:17;27.45;;;19.67;;
14342;SDS011;7255;53.596;9.960;2023-04-15T09:11:43;26.85;;;18.98;;
14342;SDS011;7255;53.596;9.960;2023-04-15T09:14:10;24.90;;;19.00;;
14342;SDS011;7255;53.596;9.960;2023-04-15T09:16:56;28.45;;;20.05;;
14342;SDS011;7255;53.596;9.960;2023-04-15T09:19:23;29.23;;;19.67;;
14342;SDS011;7255;53.596;9.960;2023-04-15T09:21:50;27.20;;;19.48;;
14342;SDS011;7255;53.596;9.960;2023-04-15T09:24:18;26.23;;;18.65;;
14342;SDS011;7255;53.596;9.960;2023-04-15T09:26:45;25.80;;;18.58;;
14342;SDS011;7255;53.596;9.960;2023-04-15T09:29:12;29.25;;;18.98;;
14342;SDS011;7255;53.596;9.960;2023-04-15T09:31:39;26.67;;;19.30;;
14342;SDS011;7255;53.596;9.960;2023-04-15T09:34:05;26.58;;;18.45;;
14342;SDS011;7255;53.596;9.960;2023-04-15T09:36:37;26.95;;;19.40;;
14342;SDS011;7255;53.596;9.960;2023-04-15T09:39:19;25.30;;;18.42;;
14342;SDS011;7255;53.596;9.960;2023-04-15T09:41:45;25.37;;;18.27;;
14342;SDS011;7255;53.596;9.960;2023-04-15T09:44:21;26.60;;;18.25;;
14342;SDS011;7255;53.596;9.960;2023-04-15T09:46:47;26.17;;;18.23;;
14342;SDS011;7255;53.596;9.960;2023-04-15T09:49:14;22.73;;;17.00;;
14342;SDS011;7255;53.596;9.960;2023-04-15T09:51:41;24.70;;;18.42;;
14342;SDS011;7255;53.596;9.960;2023-04-15T09:54:08;24.40;;;18.50;;
14342;SDS011;7255;53.596;9.960;2023-04-15T09:56:37;24.33;;;18.10;;
14342;SDS011;7255;53.596;9.960;2023-04-15T09:59:06;21.27;;;16.70;;
14342;SDS011;7255;53.596;9.960;2023-04-15T10:01:33;24.37;;;17.65;;
14342;SDS011;7255;53.596;9.960;2023-04-15T10:04:00;22.50;;;16.73;;
14342;SDS011;7255;53.596;9.960;2023-04-15T10:06:28;22.85;;;17.02;;
14342;SDS011;7255;53.596;9.960;2023-04-15T10:08:55;22.83;;;16.65;;
14342;SDS011;7255;53.596;9.960;2023-04-15T10:11:22;24.17;;;16.58;;
14342;SDS011;7255;53.596;9.960;2023-04-15T10:13:50;24.52;;;16.65;;
14342;SDS011;7255;53.596;9.960;2023-04-15T10:16:19;23.87;;;16.90;;
14342;SDS011;7255;53.596;9.960;2023-04-15T10:18:46;21.77;;;15.80;;
14342;SDS011;7255;53.596;9.960;2023-04-15T10:21:16;20.95;;;15.68;;
14342;SDS011;7255;53.596;9.960;2023-04-15T10:23:44;19.25;;;14.75;;
14342;SDS011;7255;53.596;9.960;2023-04-15T10:26:11;20.25;;;15.50;;
14342;SDS011;7255;53.596;9.960;2023-04-15T10:28:38;19.60;;;15.18;;
14342;SDS011;7255;53.596;9.960;2023-04-15T10:31:06;18.95;;;14.68;;
14342;SDS011;7255;53.596;9.960;2023-04-15T10:33:33;18.87;;;14.40;;
14342;SDS011;7255;53.596;9.960;2023-04-15T10:36:00;17.98;;;13.85;;
14342;SDS011;7255;53.596;9.960;2023-04-15T10:38:30;17.62;;;13.62;;
14342;SDS011;7255;53.596;9.960;2023-04-15T10:41:10;18.00;;;14.40;;
14342;SDS011;7255;53.596;9.960;2023-04-15T10:43:38;18.48;;;14.40;;
14342;SDS011;7255;53.596;9.960;2023-04-15T10:46:04;18.87;;;14.77;;
14342;SDS011;7255;53.596;9.960;2023-04-15T10:48:33;18.58;;;14.40;;
14342;SDS011;7255;53.596;9.960;2023-04-15T10:50:59;18.62;;;14.13;;
14342;SDS011;7255;53.596;9.960;2023-04-15T10:53:28;16.73;;;14.00;;
14342;SDS011;7255;53.596;9.960;2023-04-15T10:55:55;15.05;;;12.85;;
14342;SDS011;7255;53.596;9.960;2023-04-15T10:58:22;16.27;;;12.30;;
14342;SDS011;7255;53.596;9.960;2023-04-15T11:00:49;13.23;;;11.27;;
14342;SDS011;7255;53.596;9.960;2023-04-15T11:03:20;13.20;;;11.12;;
14342;SDS011;7255;53.596;9.960;2023-04-15T11:06:03;13.53;;;10.47;;
14342;SDS011;7255;53.596;9.960;2023-04-15T11:11:19;14.70;;;11.30;;
14342;SDS011;7255;53.596;9.960;2023-04-15T11:13:46;12.57;;;10.25;;
14342;SDS011;7255;53.596;9.960;2023-04-15T11:16:14;12.93;;;10.73;;
14342;SDS011;7255;53.596;9.960;2023-04-15T11:18:42;10.85;;;8.70;;
14342;SDS011;7255;53.596;9.960;2023-04-15T11:21:19;11.00;;;7.95;;
14342;SDS011;7255;53.596;9.960;2023-04-15T11:23:50;7.80;;;6.87;;
14342;SDS011;7255;53.596;9.960;2023-04-15T11:26:16;7.20;;;6.35;;
14342;SDS011;7255;53.596;9.960;2023-04-15T11:28:43;8.80;;;7.50;;
14342;SDS011;7255;53.596;9.960;2023-04-15T11:31:11;7.90;;;6.60;;
14342;SDS011;7255;53.596;9.960;2023-04-15T11:33:45;8.05;;;6.68;;
14342;SDS011;7255;53.596;9.960;2023-04-15T11:36:12;8.32;;;6.95;;
14342;SDS011;7255;53.596;9.960;2023-04-15T11:38:41;8.88;;;7.30;;
14342;SDS011;7255;53.596;9.960;2023-04-15T11:41:08;8.52;;;6.62;;
14342;SDS011;7255;53.596;9.960;2023-04-15T11:43:34;7.75;;;6.82;;
14342;SDS011;7255;53.596;9.960;2023-04-15T11:46:01;8.55;;;7.00;;
14342;SDS011;7255;53.596;9.960;2023-04-15T11:48:30;7.87;;;6.78;;
14342;SDS011;7255;53.596;9.960;2023-04-15T11:50:59;8.77;;;6.97;;
14342;SDS011;7255;53.596;9.960;2023-04-15T11:53:35;7.05;;;6.18;;
14342;SDS011;7255;53.596;9.960;2023-04-15T11:56:02;7.77;;;6.70;;
14342;SDS011;7255;53.596;9.960;2023-04-15T11:58:29;7.00;;;6.30;;
14342;SDS011;7255;53.596;9.960;2023-04-15T12:00:56;7.30;;;6.50;;
14342;SDS011;7255;53.596;9.960;2023-04-15T12:03:24;6.93;;;5.93;;
14342;SDS011;7255;53.596;9.960;2023-04-15T12:06:10;7.87;;;6.78;;
14342;SDS011;7255;53.596;9.960;2023-04-15T12:08:47;6.43;;;5.82;;
14342;SDS011;7255;53.596;9.960;2023-04-15T12:11:32;7.12;;;6.25;;
14342;SDS011;7255;53.596;9.960;2023-04-15T12:14:05;7.77;;;6.90;;
14342;SDS011;7255;53.596;9.960;2023-04-15T12:16:33;7.43;;;6.37;;
14342;SDS011;7255;53.596;9.960;2023-04-15T12:19:03;7.87;;;7.07;;
14342;SDS011;7255;53.596;9.960;2023-04-15T12:21:34;7.35;;;6.55;;
14342;SDS011;7255;53.596;9.960;2023-04-15T12:24:02;7.20;;;6.50;;
14342;SDS011;7255;53.596;9.960;2023-04-15T12:26:32;6.65;;;5.95;;
14342;SDS011;7255;53.596;9.960;2023-04-15T12:29:01;7.37;;;6.57;;
14342;SDS011;7255;53.596;9.960;2023-04-15T12:31:28;9.20;;;6.80;;
14342;SDS011;7255;53.596;9.960;2023-04-15T12:33:54;6.93;;;6.22;;
14342;SDS011;7255;53.596;9.960;2023-04-15T12:36:21;6.73;;;6.03;;
14342;SDS011;7255;53.596;9.960;2023-04-15T12:38:49;7.43;;;6.50;;
14342;SDS011;7255;53.596;9.960;2023-04-15T12:41:16;7.87;;;6.87;;
14342;SDS011;7255;53.596;9.960;2023-04-15T12:43:43;7.62;;;6.45;;
14342;SDS011;7255;53.596;9.960;2023-04-15T12:46:09;7.82;;;6.90;;
14342;SDS011;7255;53.596;9.960;2023-04-15T12:48:36;7.40;;;6.70;;
14342;SDS011;7255;53.596;9.960;2023-04-15T12:51:02;7.25;;;6.20;;
14342;SDS011;7255;53.596;9.960;2023-04-15T12:53:28;7.57;;;6.10;;
14342;SDS011;7255;53.596;9.960;2023-04-15T12:55:56;6.70;;;5.90;;
14342;SDS011;7255;53.596;9.960;2023-04-15T12:58:22;8.20;;;6.43;;
14342;SDS011;7255;53.596;9.960;2023-04-15T13:00:49;7.20;;;6.50;;
14342;SDS011;7255;53.596;9.960;2023-04-15T13:03:15;7.90;;;6.87;;
14342;SDS011;7255;53.596;9.960;2023-04-15T13:05:42;7.65;;;6.82;;
14342;SDS011;7255;53.596;9.960;2023-04-15T13:08:08;7.37;;;6.35;;
14342;SDS011;7255;53.596;9.960;2023-04-15T13:10:35;7.85;;;7.05;;
14342;SDS011;7255;53.596;9.960;2023-04-15T13:13:03;6.97;;;6.27;;
14342;SDS011;7255;53.596;9.960;2023-04-15T13:15:30;7.53;;;6.53;;
14342;SDS011;7255;53.596;9.960;2023-04-15T13:17:56;6.68;;;5.97;;
14342;SDS011;7255;53.596;9.960;2023-04-15T13:20:23;8.73;;;6.30;;
14342;SDS011;7255;53.596;9.960;2023-04-15T13:22:50;6.97;;;5.95;;
14342;SDS011;7255;53.596;9.960;2023-04-15T13:25:17;7.00;;;5.87;;
14342;SDS011;7255;53.596;9.960;2023-04-15T13:27:43;6.62;;;5.93;;
14342;SDS011;7255;53.596;9.960;2023-04-15T13:30:12;7.93;;;5.95;;
14342;SDS011;7255;53.596;9.960;2023-04-15T13:32:38;6.78;;;5.18;;
14342;SDS011;7255;53.596;9.960;2023-04-15T13:35:04;6.18;;;5.57;;
14342;SDS011;7255;53.596;9.960;2023-04-15T13:37:31;6.50;;;5.80;;
14342;SDS011;7255;53.596;9.960;2023-04-15T13:39:57;6.15;;;5.55;;
14342;SDS011;7255;53.596;9.960;2023-04-15T13:42:23;6.55;;;5.87;;
14342;SDS011;7255;53.596;9.960;2023-04-15T13:44:51;6.78;;;6.07;;
14342;SDS011;7255;53.596;9.960;2023-04-15T13:47:19;6.57;;;5.85;;
14342;SDS011;7255;53.596;9.960;2023-04-15T13:49:45;6.60;;;5.90;;
14342;SDS011;7255;53.596;9.960;2023-04-15T13:52:12;6.55;;;5.85;;
14342;SDS011;7255;53.596;9.960;2023-04-15T13:54:38;7.00;;;5.82;;
14342;SDS011;7255;53.596;9.960;2023-04-15T13:57:05;5.93;;;5.32;;
14342;SDS011;7255;53.596;9.960;2023-04-15T13:59:31;6.87;;;5.90;;
14342;SDS011;7255;53.596;9.960;2023-04-15T14:01:58;6.00;;;5.35;;
14342;SDS011;7255;53.596;9.960;2023-04-15T14:04:25;6.05;;;5.20;;
14342;SDS011;7255;53.596;9.960;2023-04-15T14:06:52;5.60;;;5.10;;
14342;SDS011;7255;53.596;9.960;2023-04-15T14:09:18;5.15;;;4.65;;
14342;SDS011;7255;53.596;9.960;2023-04-15T14:11:46;6.80;;;6.00;;
14342;SDS011;7255;53.596;9.960;2023-04-15T14:14:12;6.03;;;5.30;;
14342;SDS011;7255;53.596;9.960;2023-04-15T14:16:38;6.10;;;5.45;;
14342;SDS011;7255;53.596;9.960;2023-04-15T14:19:05;5.62;;;5.05;;
14342;SDS011;7255;53.596;9.960;2023-04-15T14:21:32;5.95;;;5.35;;
14342;SDS011;7255;53.596;9.960;2023-04-15T14:23:59;6.03;;;5.43;;
14342;SDS011;7255;53.596;9.960;2023-04-15T14:26:25;6.13;;;5.53;;
14342;SDS011;7255;53.596;9.960;2023-04-15T14:28:51;5.82;;;5.22;;
14342;SDS011;7255;53.596;9.960;2023-04-15T14:31:18;5.75;;;5.15;;
14342;SDS011;7255;53.596;9.960;2023-04-15T14:33:44;5.80;;;5.20;;
14342;SDS011;7255;53.596;9.960;2023-04-15T14:36:11;6.35;;;5.65;;
14342;SDS011;7255;53.596;9.960;2023-04-15T14:38:39;6.53;;;5.80;;
14342;SDS011;7255;53.596;9.960;2023-04-15T14:41:05;6.55;;;5.78;;
14342;SDS011;7255;53.596;9.960;2023-04-15T14:43:32;5.50;;;5.00;;
14342;SDS011;7255;53.596;9.960;2023-04-15T14:45:58;5.68;;;4.78;;
14342;SDS011;7255;53.596;9.960;2023-04-15T14:48:25;6.18;;;5.07;;